sensor_id;sensor_type;location;lat;lon;timestamp;temperature;humidity
5556;DHT22;2801;50.972;7.856;2023-02-23T00:02:00;7.10;99.90
5556;DHT22;2801;50.972;7.856;2023-02-23T00:04:34;7.00;99.90
5556;DHT22;2801;50.972;7.856;2023-02-23T00:07:01;7.10;99.90
5556;DHT22;2801;50.972;7.856;2023-02-23T00:09:28;7.00;99.90
5556;DHT22;2801;50.972;7.856;2023-02-23T00:12:03;7.00;99.90
5556;DHT22;2801;50.972;7.856;2023-02-23T00:14:36;7.10;99.90
5556;DHT22;2801;50.972;7.856;2023-02-23T00:17:04;7.10;99.90
5556;DHT22;2801;50.972;7.856;2023-02-23T00:19:39;7.10;99.90
5556;DHT22;2801;50.972;7.856;2023-02-23T00:22:09;7.10;99.90
5556;DHT22;2801;50.972;7.856;2023-02-23T00:24:36;7.20;99.90
5556;DHT22;2801;50.972;7.856;2023-02-23T00:27:04;7.20;99.90
5556;DHT22;2801;50.972;7.856;2023-02-23T00:29:32;7.20;99.90
5556;DHT22;2801;50.972;7.856;2023-02-23T00:32:06;7.20;99.90
5556;DHT22;2801;50.972;7.856;2023-02-23T00:34:33;7.10;99.90
5556;DHT22;2801;50.972;7.856;2023-02-23T00:37:02;7.20;99.90
5556;DHT22;2801;50.972;7.856;2023-02-23T00:39:28;7.10;99.90
5556;DHT22;2801;50.972;7.856;2023-02-23T00:41:55;7.10;99.90
5556;DHT22;2801;50.972;7.856;2023-02-23T00:44:28;7.10;99.90
5556;DHT22;2801;50.972;7.856;2023-02-23T00:46:55;7.10;99.90
5556;DHT22;2801;50.972;7.856;2023-02-23T00:49:22;7.20;99.90
5556;DHT22;2801;50.972;7.856;2023-02-23T00:51:49;7.10;99.90
5556;DHT22;2801;50.972;7.856;2023-02-23T00:54:19;7.20;99.90
5556;DHT22;2801;50.972;7.856;2023-02-23T00:56:47;7.20;99.90
5556;DHT22;2801;50.972;7.856;2023-02-23T00:59:15;7.10;99.90
5556;DHT22;2801;50.972;7.856;2023-02-23T01:01:42;7.20;99.90
5556;DHT22;2801;50.972;7.856;2023-02-23T01:04:10;7.20;99.90
5556;DHT22;2801;50.972;7.856;2023-02-23T01:06:39;7.20;99.90
5556;DHT22;2801;50.972;7.856;2023-02-23T01:09:13;7.20;99.90
5556;DHT22;2801;50.972;7.856;2023-02-23T01:11:47;7.20;99.90
5556;DHT22;2801;50.972;7.856;2023-02-23T01:14:14;7.20;99.90
5556;DHT22;2801;50.972;7.856;2023-02-23T01:16:41;7.10;99.90
5556;DHT22;2801;50.972;7.856;2023-02-23T01:19:09;7.20;99.90
5556;DHT22;2801;50.972;7.856;2023-02-23T01:21:38;7.20;99.90
5556;DHT22;2801;50.972;7.856;2023-02-23T01:24:07;7.20;99.90
5556;DHT22;2801;50.972;7.856;2023-02-23T01:26:37;7.20;99.90
5556;DHT22;2801;50.972;7.856;2023-02-23T01:29:14;7.20;99.90
5556;DHT22;2801;50.972;7.856;2023-02-23T01:31:45;7.30;99.90
5556;DHT22;2801;50.972;7.856;2023-02-23T01:34:14;7.30;99.90
5556;DHT22;2801;50.972;7.856;2023-02-23T01:36:42;7.30;99.90
5556;DHT22;2801;50.972;7.856;2023-02-23T01:39:18;7.30;99.90
5556;DHT22;2801;50.972;7.856;2023-02-23T01:41:47;7.30;99.90
5556;DHT22;2801;50.972;7.856;2023-02-23T01:46:45;7.30;99.90
5556;DHT22;2801;50.972;7.856;2023-02-23T01:49:17;7.40;99.90
5556;DHT22;2801;50.972;7.856;2023-02-23T01:52:09;7.40;99.90
5556;DHT22;2801;50.972;7.856;2023-02-23T01:54:51;7.40;99.90
5556;DHT22;2801;50.972;7.856;2023-02-23T01:57:22;7.40;99.90
5556;DHT22;2801;50.972;7.856;2023-02-23T01:59:50;7.50;99.90
5556;DHT22;2801;50.972;7.856;2023-02-23T02:02:20;7.50;99.90
5556;DHT22;2801;50.972;7.856;2023-02-23T02:04:53;7.50;99.90
5556;DHT22;2801;50.972;7.856;2023-02-23T02:07:25;7.50;99.90
5556;DHT22;2801;50.972;7.856;2023-02-23T02:09:56;7.50;99.90
5556;DHT22;2801;50.972;7.856;2023-02-23T02:12:53;7.60;99.90
5556;DHT22;2801;50.972;7.856;2023-02-23T02:15:26;7.60;99.90
5556;DHT22;2801;50.972;7.856;2023-02-23T02:18:22;7.60;99.90
5556;DHT22;2801;50.972;7.856;2023-02-23T02:21:33;7.60;99.90
5556;DHT22;2801;50.972;7.856;2023-02-23T02:33:23;7.60;99.90
5556;DHT22;2801;50.972;7.856;2023-02-23T02:36:13;7.60;99.90
5556;DHT22;2801;50.972;7.856;2023-02-23T02:42:11;7.70;99.90
5556;DHT22;2801;50.972;7.856;2023-02-23T02:44:53;7.60;99.90
5556;DHT22;2801;50.972;7.856;2023-02-23T02:48:19;7.50;99.90
5556;DHT22;2801;50.972;7.856;2023-02-23T02:50:43;7.50;99.90
5556;DHT22;2801;50.972;7.856;2023-02-23T02:53:27;7.40;99.90
5556;DHT22;2801;50.972;7.856;2023-02-23T02:56:04;7.40;99.90
5556;DHT22;2801;50.972;7.856;2023-02-23T02:58:32;7.40;99.90
5556;DHT22;2801;50.972;7.856;2023-02-23T03:01:11;7.40;99.90
5556;DHT22;2801;50.972;7.856;2023-02-23T03:04:02;7.40;99.90
5556;DHT22;2801;50.972;7.856;2023-02-23T03:07:25;7.40;99.90
5556;DHT22;2801;50.972;7.856;2023-02-23T03:10:40;7.30;99.90
5556;DHT22;2801;50.972;7.856;2023-02-23T03:13:43;7.30;99.90
5556;DHT22;2801;50.972;7.856;2023-02-23T03:17:00;7.20;99.90
5556;DHT22;2801;50.972;7.856;2023-02-23T03:20:00;7.10;99.90
5556;DHT22;2801;50.972;7.856;2023-02-23T03:26:16;7.10;99.90
5556;DHT22;2801;50.972;7.856;2023-02-23T03:32:47;7.10;99.90
5556;DHT22;2801;50.972;7.856;2023-02-23T03:38:45;7.10;99.90
5556;DHT22;2801;50.972;7.856;2023-02-23T03:41:39;7.10;99.90
5556;DHT22;2801;50.972;7.856;2023-02-23T03:44:41;7.10;99.90
5556;DHT22;2801;50.972;7.856;2023-02-23T03:47:33;7.10;99.90
5556;DHT22;2801;50.972;7.856;2023-02-23T03:50:35;7.10;99.90
5556;DHT22;2801;50.972;7.856;2023-02-23T03:53:30;7.10;99.90
5556;DHT22;2801;50.972;7.856;2023-02-23T03:56:23;7.10;99.90
5556;DHT22;2801;50.972;7.856;2023-02-23T03:59:14;7.00;99.90
5556;DHT22;2801;50.972;7.856;2023-02-23T04:02:03;7.00;99.90
5556;DHT22;2801;50.972;7.856;2023-02-23T04:04:57;7.00;99.90
5556;DHT22;2801;50.972;7.856;2023-02-23T04:07:47;6.90;99.90
5556;DHT22;2801;50.972;7.856;2023-02-23T04:10:40;6.90;99.90
5556;DHT22;2801;50.972;7.856;2023-02-23T04:13:34;6.80;99.90
5556;DHT22;2801;50.972;7.856;2023-02-23T04:16:08;6.80;99.90
5556;DHT22;2801;50.972;7.856;2023-02-23T04:18:38;6.80;99.90
5556;DHT22;2801;50.972;7.856;2023-02-23T04:21:05;6.80;99.90
5556;DHT22;2801;50.972;7.856;2023-02-23T04:23:34;6.80;99.90
5556;DHT22;2801;50.972;7.856;2023-02-23T04:26:03;6.80;99.90
5556;DHT22;2801;50.972;7.856;2023-02-23T04:28:30;6.80;99.90
5556;DHT22;2801;50.972;7.856;2023-02-23T04:30:57;6.80;99.90
5556;DHT22;2801;50.972;7.856;2023-02-23T04:33:24;6.90;99.90
5556;DHT22;2801;50.972;7.856;2023-02-23T04:35:53;6.90;99.90
5556;DHT22;2801;50.972;7.856;2023-02-23T04:38:21;6.90;99.90
5556;DHT22;2801;50.972;7.856;2023-02-23T04:40:49;6.90;99.90
5556;DHT22;2801;50.972;7.856;2023-02-23T04:43:16;6.90;99.90
5556;DHT22;2801;50.972;7.856;2023-02-23T04:45:43;7.00;99.90
5556;DHT22;2801;50.972;7.856;2023-02-23T04:48:10;7.00;99.90
5556;DHT22;2801;50.972;7.856;2023-02-23T04:50:37;7.00;99.90
5556;DHT22;2801;50.972;7.856;2023-02-23T04:53:05;7.10;99.90
5556;DHT22;2801;50.972;7.856;2023-02-23T04:55:32;7.10;99.90
5556;DHT22;2801;50.972;7.856;2023-02-23T04:58:00;7.10;99.90
5556;DHT22;2801;50.972;7.856;2023-02-23T05:00:28;7.10;99.90
5556;DHT22;2801;50.972;7.856;2023-02-23T05:02:56;7.10;99.90
5556;DHT22;2801;50.972;7.856;2023-02-23T05:05:23;7.00;99.90
5556;DHT22;2801;50.972;7.856;2023-02-23T05:07:50;7.00;99.90
5556;DHT22;2801;50.972;7.856;2023-02-23T05:10:18;7.10;99.90
5556;DHT22;2801;50.972;7.856;2023-02-23T05:12:45;7.00;99.90
5556;DHT22;2801;50.972;7.856;2023-02-23T05:15:12;7.10;99.90
5556;DHT22;2801;50.972;7.856;2023-02-23T05:17:40;7.10;99.90
5556;DHT22;2801;50.972;7.856;2023-02-23T05:20:09;7.10;99.90
5556;DHT22;2801;50.972;7.856;2023-02-23T05:22:39;7.10;99.90
5556;DHT22;2801;50.972;7.856;2023-02-23T05:25:07;7.10;99.90
5556;DHT22;2801;50.972;7.856;2023-02-23T05:27:35;7.10;99.90
5556;DHT22;2801;50.972;7.856;2023-02-23T05:30:03;7.00;99.90
5556;DHT22;2801;50.972;7.856;2023-02-23T05:32:33;7.10;99.90
5556;DHT22;2801;50.972;7.856;2023-02-23T05:35:00;7.00;99.90
5556;DHT22;2801;50.972;7.856;2023-02-23T05:37:28;7.00;99.90
5556;DHT22;2801;50.972;7.856;2023-02-23T05:39:55;7.00;99.90
5556;DHT22;2801;50.972;7.856;2023-02-23T05:42:21;7.00;99.90
5556;DHT22;2801;50.972;7.856;2023-02-23T05:44:48;7.00;99.90
5556;DHT22;2801;50.972;7.856;2023-02-23T05:47:15;7.00;99.90
5556;DHT22;2801;50.972;7.856;2023-02-23T05:49:42;7.00;99.90
5556;DHT22;2801;50.972;7.856;2023-02-23T05:52:11;7.00;99.90
5556;DHT22;2801;50.972;7.856;2023-02-23T05:54:38;7.00;99.90
5556;DHT22;2801;50.972;7.856;2023-02-23T05:57:05;7.10;99.90
5556;DHT22;2801;50.972;7.856;2023-02-23T05:59:33;7.10;99.90
5556;DHT22;2801;50.972;7.856;2023-02-23T06:02:01;7.10;99.90
5556;DHT22;2801;50.972;7.856;2023-02-23T06:04:31;7.10;99.90
5556;DHT22;2801;50.972;7.856;2023-02-23T06:06:58;7.10;99.90
5556;DHT22;2801;50.972;7.856;2023-02-23T06:09:25;7.10;99.90
5556;DHT22;2801;50.972;7.856;2023-02-23T06:11:52;7.20;99.90
5556;DHT22;2801;50.972;7.856;2023-02-23T06:14:19;7.20;99.90
5556;DHT22;2801;50.972;7.856;2023-02-23T06:16:46;7.20;99.90
5556;DHT22;2801;50.972;7.856;2023-02-23T06:19:14;7.20;99.90
5556;DHT22;2801;50.972;7.856;2023-02-23T06:21:41;7.20;99.90
5556;DHT22;2801;50.972;7.856;2023-02-23T06:24:08;7.20;99.90
5556;DHT22;2801;50.972;7.856;2023-02-23T06:26:35;7.20;99.90
5556;DHT22;2801;50.972;7.856;2023-02-23T06:29:02;7.20;99.90
5556;DHT22;2801;50.972;7.856;2023-02-23T06:31:29;7.20;99.90
5556;DHT22;2801;50.972;7.856;2023-02-23T06:33:57;7.20;99.90
5556;DHT22;2801;50.972;7.856;2023-02-23T06:36:24;7.20;99.90
5556;DHT22;2801;50.972;7.856;2023-02-23T06:38:54;7.20;99.90
5556;DHT22;2801;50.972;7.856;2023-02-23T06:41:22;7.30;99.90
5556;DHT22;2801;50.972;7.856;2023-02-23T06:43:49;7.30;99.90
5556;DHT22;2801;50.972;7.856;2023-02-23T06:46:18;7.30;99.90
5556;DHT22;2801;50.972;7.856;2023-02-23T06:48:45;7.30;99.90
5556;DHT22;2801;50.972;7.856;2023-02-23T06:51:12;7.30;99.90
5556;DHT22;2801;50.972;7.856;2023-02-23T06:53:39;7.30;99.90
5556;DHT22;2801;50.972;7.856;2023-02-23T06:56:06;7.40;99.90
5556;DHT22;2801;50.972;7.856;2023-02-23T06:58:33;7.40;99.90
5556;DHT22;2801;50.972;7.856;2023-02-23T07:01:00;7.40;99.90
5556;DHT22;2801;50.972;7.856;2023-02-23T07:03:27;7.40;99.90
5556;DHT22;2801;50.972;7.856;2023-02-23T07:05:54;7.40;99.90
5556;DHT22;2801;50.972;7.856;2023-02-23T07:08:21;7.40;99.90
5556;DHT22;2801;50.972;7.856;2023-02-23T07:10:47;7.40;99.90
5556;DHT22;2801;50.972;7.856;2023-02-23T07:13:14;7.40;99.90
5556;DHT22;2801;50.972;7.856;2023-02-23T07:15:42;7.50;99.90
5556;DHT22;2801;50.972;7.856;2023-02-23T07:18:09;7.50;99.90
5556;DHT22;2801;50.972;7.856;2023-02-23T07:20:35;7.50;99.90
5556;DHT22;2801;50.972;7.856;2023-02-23T07:23:03;7.60;99.90
5556;DHT22;2801;50.972;7.856;2023-02-23T07:25:30;7.60;99.90
5556;DHT22;2801;50.972;7.856;2023-02-23T07:27:57;7.60;99.90
5556;DHT22;2801;50.972;7.856;2023-02-23T07:30:24;7.70;99.90
5556;DHT22;2801;50.972;7.856;2023-02-23T07:32:52;7.70;99.90
5556;DHT22;2801;50.972;7.856;2023-02-23T07:35:19;7.70;99.90
5556;DHT22;2801;50.972;7.856;2023-02-23T07:37:46;7.70;99.90
5556;DHT22;2801;50.972;7.856;2023-02-23T07:40:13;7.80;99.90
5556;DHT22;2801;50.972;7.856;2023-02-23T07:42:40;7.80;99.90
5556;DHT22;2801;50.972;7.856;2023-02-23T07:45:08;7.80;99.90
5556;DHT22;2801;50.972;7.856;2023-02-23T07:47:35;7.90;99.90
5556;DHT22;2801;50.972;7.856;2023-02-23T07:50:07;7.90;99.90
5556;DHT22;2801;50.972;7.856;2023-02-23T07:52:37;7.90;99.90
5556;DHT22;2801;50.972;7.856;2023-02-23T07:55:06;8.00;99.90
5556;DHT22;2801;50.972;7.856;2023-02-23T07:57:34;8.00;99.90
5556;DHT22;2801;50.972;7.856;2023-02-23T08:00:01;8.00;99.90
5556;DHT22;2801;50.972;7.856;2023-02-23T08:02:28;8.00;99.90
5556;DHT22;2801;50.972;7.856;2023-02-23T08:04:55;8.10;99.90
5556;DHT22;2801;50.972;7.856;2023-02-23T08:07:22;8.00;99.90
5556;DHT22;2801;50.972;7.856;2023-02-23T08:09:51;8.00;99.90
5556;DHT22;2801;50.972;7.856;2023-02-23T08:12:19;8.00;99.90
5556;DHT22;2801;50.972;7.856;2023-02-23T08:14:46;8.10;99.90
5556;DHT22;2801;50.972;7.856;2023-02-23T08:17:12;8.10;99.90
5556;DHT22;2801;50.972;7.856;2023-02-23T08:19:39;8.10;99.90
5556;DHT22;2801;50.972;7.856;2023-02-23T08:22:06;8.20;99.90
5556;DHT22;2801;50.972;7.856;2023-02-23T08:24:37;8.20;99.90
5556;DHT22;2801;50.972;7.856;2023-02-23T08:27:04;8.20;99.90
5556;DHT22;2801;50.972;7.856;2023-02-23T08:29:31;8.30;99.90
5556;DHT22;2801;50.972;7.856;2023-02-23T08:32:03;8.30;99.90
5556;DHT22;2801;50.972;7.856;2023-02-23T08:34:30;8.30;99.90
5556;DHT22;2801;50.972;7.856;2023-02-23T08:36:57;8.30;99.90
5556;DHT22;2801;50.972;7.856;2023-02-23T08:39:25;8.40;99.90
5556;DHT22;2801;50.972;7.856;2023-02-23T08:41:52;8.40;99.90
5556;DHT22;2801;50.972;7.856;2023-02-23T08:44:20;8.40;99.90
5556;DHT22;2801;50.972;7.856;2023-02-23T08:46:47;8.40;99.90
5556;DHT22;2801;50.972;7.856;2023-02-23T08:49:14;8.40;99.90
5556;DHT22;2801;50.972;7.856;2023-02-23T08:51:41;8.40;99.90
5556;DHT22;2801;50.972;7.856;2023-02-23T08:54:08;8.40;99.90
5556;DHT22;2801;50.972;7.856;2023-02-23T08:56:40;8.40;99.90
5556;DHT22;2801;50.972;7.856;2023-02-23T08:59:07;8.40;99.90
5556;DHT22;2801;50.972;7.856;2023-02-23T09:01:35;8.40;99.90
5556;DHT22;2801;50.972;7.856;2023-02-23T09:04:03;8.30;99.90
5556;DHT22;2801;50.972;7.856;2023-02-23T09:06:31;8.30;99.90
5556;DHT22;2801;50.972;7.856;2023-02-23T09:09:00;8.30;99.90
5556;DHT22;2801;50.972;7.856;2023-02-23T09:11:27;8.30;99.90
5556;DHT22;2801;50.972;7.856;2023-02-23T09:13:54;8.30;99.90
5556;DHT22;2801;50.972;7.856;2023-02-23T09:16:21;8.30;99.90
5556;DHT22;2801;50.972;7.856;2023-02-23T09:18:48;8.40;99.90
5556;DHT22;2801;50.972;7.856;2023-02-23T09:21:18;8.50;99.90
5556;DHT22;2801;50.972;7.856;2023-02-23T09:23:51;8.50;99.90
5556;DHT22;2801;50.972;7.856;2023-02-23T09:26:22;8.70;99.90
5556;DHT22;2801;50.972;7.856;2023-02-23T09:28:50;8.70;99.90
5556;DHT22;2801;50.972;7.856;2023-02-23T09:31:19;8.70;99.90
5556;DHT22;2801;50.972;7.856;2023-02-23T09:33:49;8.70;99.90
5556;DHT22;2801;50.972;7.856;2023-02-23T09:36:20;8.60;99.90
5556;DHT22;2801;50.972;7.856;2023-02-23T09:38:52;8.60;99.90
5556;DHT22;2801;50.972;7.856;2023-02-23T09:49:41;8.60;99.90
5556;DHT22;2801;50.972;7.856;2023-02-23T09:52:20;8.60;99.90
5556;DHT22;2801;50.972;7.856;2023-02-23T09:54:49;8.60;99.90
5556;DHT22;2801;50.972;7.856;2023-02-23T09:57:21;8.70;99.90
5556;DHT22;2801;50.972;7.856;2023-02-23T10:00:09;8.70;99.90
5556;DHT22;2801;50.972;7.856;2023-02-23T10:03:20;8.70;99.90
5556;DHT22;2801;50.972;7.856;2023-02-23T10:05:58;8.80;99.90
5556;DHT22;2801;50.972;7.856;2023-02-23T10:19:59;8.80;99.90
5556;DHT22;2801;50.972;7.856;2023-02-23T10:22:33;8.80;99.90
5556;DHT22;2801;50.972;7.856;2023-02-23T10:25:12;8.80;99.90
5556;DHT22;2801;50.972;7.856;2023-02-23T10:27:48;8.70;99.90
5556;DHT22;2801;50.972;7.856;2023-02-23T10:30:26;8.70;99.90
5556;DHT22;2801;50.972;7.856;2023-02-23T10:32:58;8.70;99.90
5556;DHT22;2801;50.972;7.856;2023-02-23T10:35:28;8.60;99.90
5556;DHT22;2801;50.972;7.856;2023-02-23T10:37:58;8.60;99.90
5556;DHT22;2801;50.972;7.856;2023-02-23T10:40:29;8.60;99.90
5556;DHT22;2801;50.972;7.856;2023-02-23T10:43:02;8.50;99.90
5556;DHT22;2801;50.972;7.856;2023-02-23T10:45:35;8.50;99.90
5556;DHT22;2801;50.972;7.856;2023-02-23T10:48:10;8.50;99.90
5556;DHT22;2801;50.972;7.856;2023-02-23T10:50:42;8.40;99.90
5556;DHT22;2801;50.972;7.856;2023-02-23T10:53:25;8.40;99.90
5556;DHT22;2801;50.972;7.856;2023-02-23T10:56:09;8.50;99.90
5556;DHT22;2801;50.972;7.856;2023-02-23T10:58:41;8.50;99.90
5556;DHT22;2801;50.972;7.856;2023-02-23T11:01:10;8.50;99.90
5556;DHT22;2801;50.972;7.856;2023-02-23T11:03:39;8.40;99.90
5556;DHT22;2801;50.972;7.856;2023-02-23T11:06:29;8.40;99.90
5556;DHT22;2801;50.972;7.856;2023-02-23T11:08:58;8.40;99.90
5556;DHT22;2801;50.972;7.856;2023-02-23T11:11:59;8.40;99.90
5556;DHT22;2801;50.972;7.856;2023-02-23T11:14:29;8.40;99.90
5556;DHT22;2801;50.972;7.856;2023-02-23T11:16:58;8.40;99.90
5556;DHT22;2801;50.972;7.856;2023-02-23T11:19:36;8.50;99.90
5556;DHT22;2801;50.972;7.856;2023-02-23T11:22:05;8.50;99.90
5556;DHT22;2801;50.972;7.856;2023-02-23T11:24:35;8.50;99.90
5556;DHT22;2801;50.972;7.856;2023-02-23T11:27:15;8.60;99.90
5556;DHT22;2801;50.972;7.856;2023-02-23T11:29:48;8.70;99.90
5556;DHT22;2801;50.972;7.856;2023-02-23T11:32:26;8.60;99.90
5556;DHT22;2801;50.972;7.856;2023-02-23T11:37:48;8.50;99.90
5556;DHT22;2801;50.972;7.856;2023-02-23T11:43:13;8.50;99.90
5556;DHT22;2801;50.972;7.856;2023-02-23T11:45:50;8.40;99.90
5556;DHT22;2801;50.972;7.856;2023-02-23T11:50:51;8.20;99.90
5556;DHT22;2801;50.972;7.856;2023-02-23T11:53:36;8.20;99.90
5556;DHT22;2801;50.972;7.856;2023-02-23T11:56:08;8.20;99.90
5556;DHT22;2801;50.972;7.856;2023-02-23T11:58:43;8.20;99.90
5556;DHT22;2801;50.972;7.856;2023-02-23T12:01:17;8.10;99.90
5556;DHT22;2801;50.972;7.856;2023-02-23T12:03:57;8.00;99.90
5556;DHT22;2801;50.972;7.856;2023-02-23T12:06:33;8.10;99.90
5556;DHT22;2801;50.972;7.856;2023-02-23T12:12:04;8.00;99.90
5556;DHT22;2801;50.972;7.856;2023-02-23T12:15:05;7.90;99.90
5556;DHT22;2801;50.972;7.856;2023-02-23T12:17:52;7.90;99.90
5556;DHT22;2801;50.972;7.856;2023-02-23T12:20:30;7.90;99.90
5556;DHT22;2801;50.972;7.856;2023-02-23T12:23:08;8.00;99.90
5556;DHT22;2801;50.972;7.856;2023-02-23T12:31:14;8.00;99.90
5556;DHT22;2801;50.972;7.856;2023-02-23T12:33:49;8.00;99.90
5556;DHT22;2801;50.972;7.856;2023-02-23T12:36:52;8.10;99.90
5556;DHT22;2801;50.972;7.856;2023-02-23T12:39:29;8.00;99.90
5556;DHT22;2801;50.972;7.856;2023-02-23T12:45:00;8.10;99.90
5556;DHT22;2801;50.972;7.856;2023-02-23T12:47:53;8.10;99.90
5556;DHT22;2801;50.972;7.856;2023-02-23T12:50:38;8.10;99.90
5556;DHT22;2801;50.972;7.856;2023-02-23T12:53:31;8.10;99.90
5556;DHT22;2801;50.972;7.856;2023-02-23T13:02:48;8.60;99.90
5556;DHT22;2801;50.972;7.856;2023-02-23T13:17:39;9.00;99.90
5556;DHT22;2801;50.972;7.856;2023-02-23T13:20:40;8.90;99.90
5556;DHT22;2801;50.972;7.856;2023-02-23T13:23:28;8.90;99.90
5556;DHT22;2801;50.972;7.856;2023-02-23T13:28:59;8.80;99.90
5556;DHT22;2801;50.972;7.856;2023-02-23T13:31:38;8.70;99.90
5556;DHT22;2801;50.972;7.856;2023-02-23T13:34:23;8.60;99.90
5556;DHT22;2801;50.972;7.856;2023-02-23T13:36:53;8.50;99.90
5556;DHT22;2801;50.972;7.856;2023-02-23T13:39:39;8.40;99.90
5556;DHT22;2801;50.972;7.856;2023-02-23T13:42:38;8.30;99.90
5556;DHT22;2801;50.972;7.856;2023-02-23T13:51:43;8.30;99.90
5556;DHT22;2801;50.972;7.856;2023-02-23T13:56:47;8.30;99.90
5556;DHT22;2801;50.972;7.856;2023-02-23T13:59:20;8.20;99.90
5556;DHT22;2801;50.972;7.856;2023-02-23T14:01:51;8.20;99.90
5556;DHT22;2801;50.972;7.856;2023-02-23T14:04:27;8.20;99.90
5556;DHT22;2801;50.972;7.856;2023-02-23T14:07:13;8.10;99.90
5556;DHT22;2801;50.972;7.856;2023-02-23T14:09:55;8.10;99.90
5556;DHT22;2801;50.972;7.856;2023-02-23T14:12:38;8.10;99.90
5556;DHT22;2801;50.972;7.856;2023-02-23T14:17:59;7.90;99.90
5556;DHT22;2801;50.972;7.856;2023-02-23T14:23:33;7.90;99.90
5556;DHT22;2801;50.972;7.856;2023-02-23T14:26:35;7.90;99.90
5556;DHT22;2801;50.972;7.856;2023-02-23T14:29:25;7.90;99.90
5556;DHT22;2801;50.972;7.856;2023-02-23T14:38:09;7.80;99.90
5556;DHT22;2801;50.972;7.856;2023-02-23T14:40:46;7.70;99.90
5556;DHT22;2801;50.972;7.856;2023-02-23T14:46:10;7.60;99.90
5556;DHT22;2801;50.972;7.856;2023-02-23T14:49:18;7.60;99.90
5556;DHT22;2801;50.972;7.856;2023-02-23T14:51:51;7.70;99.90
5556;DHT22;2801;50.972;7.856;2023-02-23T14:54:31;7.70;99.90
5556;DHT22;2801;50.972;7.856;2023-02-23T14:57:05;7.70;99.90
5556;DHT22;2801;50.972;7.856;2023-02-23T14:59:44;7.90;99.90
5556;DHT22;2801;50.972;7.856;2023-02-23T15:02:20;7.70;99.90
5556;DHT22;2801;50.972;7.856;2023-02-23T15:04:50;7.70;99.90
5556;DHT22;2801;50.972;7.856;2023-02-23T15:10:16;7.90;99.90
5556;DHT22;2801;50.972;7.856;2023-02-23T15:12:47;7.70;99.90
5556;DHT22;2801;50.972;7.856;2023-02-23T15:15:21;8.00;99.90
5556;DHT22;2801;50.972;7.856;2023-02-23T15:17:53;7.80;99.90
5556;DHT22;2801;50.972;7.856;2023-02-23T15:20:28;7.80;99.90
5556;DHT22;2801;50.972;7.856;2023-02-23T15:23:03;7.80;99.90
5556;DHT22;2801;50.972;7.856;2023-02-23T15:25:37;7.80;99.90
5556;DHT22;2801;50.972;7.856;2023-02-23T15:28:23;7.80;99.90
5556;DHT22;2801;50.972;7.856;2023-02-23T15:30:54;7.80;99.90
5556;DHT22;2801;50.972;7.856;2023-02-23T15:33:22;7.80;99.90
5556;DHT22;2801;50.972;7.856;2023-02-23T15:36:09;7.80;99.90
5556;DHT22;2801;50.972;7.856;2023-02-23T15:38:45;7.80;99.90
5556;DHT22;2801;50.972;7.856;2023-02-23T15:41:30;7.80;99.90
5556;DHT22;2801;50.972;7.856;2023-02-23T15:46:43;7.70;99.90
5556;DHT22;2801;50.972;7.856;2023-02-23T15:49:15;7.40;99.90
5556;DHT22;2801;50.972;7.856;2023-02-23T15:51:47;7.40;99.90
5556;DHT22;2801;50.972;7.856;2023-02-23T15:54:28;7.30;99.90
5556;DHT22;2801;50.972;7.856;2023-02-23T15:57:03;7.30;99.90
5556;DHT22;2801;50.972;7.856;2023-02-23T15:59:36;7.30;99.90
5556;DHT22;2801;50.972;7.856;2023-02-23T16:02:16;7.30;99.90
5556;DHT22;2801;50.972;7.856;2023-02-23T16:04:46;7.30;99.90
5556;DHT22;2801;50.972;7.856;2023-02-23T16:09:54;7.30;99.90
5556;DHT22;2801;50.972;7.856;2023-02-23T16:15:16;7.30;99.90
5556;DHT22;2801;50.972;7.856;2023-02-23T16:18:19;7.20;99.90
5556;DHT22;2801;50.972;7.856;2023-02-23T16:20:53;7.10;99.90
5556;DHT22;2801;50.972;7.856;2023-02-23T16:23:36;7.00;99.90
5556;DHT22;2801;50.972;7.856;2023-02-23T16:26:10;6.90;99.90
5556;DHT22;2801;50.972;7.856;2023-02-23T16:28:45;6.90;99.90
5556;DHT22;2801;50.972;7.856;2023-02-23T16:31:21;6.80;99.90
5556;DHT22;2801;50.972;7.856;2023-02-23T16:33:55;6.80;99.90
5556;DHT22;2801;50.972;7.856;2023-02-23T16:36:34;6.80;99.90
5556;DHT22;2801;50.972;7.856;2023-02-23T16:39:09;6.80;99.90
5556;DHT22;2801;50.972;7.856;2023-02-23T16:41:37;6.70;99.90
5556;DHT22;2801;50.972;7.856;2023-02-23T16:44:06;6.70;99.90
5556;DHT22;2801;50.972;7.856;2023-02-23T16:46:56;6.70;99.90
5556;DHT22;2801;50.972;7.856;2023-02-23T16:49:28;6.70;99.90
5556;DHT22;2801;50.972;7.856;2023-02-23T16:51:56;6.80;99.90
5556;DHT22;2801;50.972;7.856;2023-02-23T16:54:24;6.70;99.90
5556;DHT22;2801;50.972;7.856;2023-02-23T16:56:53;6.70;99.90
5556;DHT22;2801;50.972;7.856;2023-02-23T16:59:22;6.70;99.90
5556;DHT22;2801;50.972;7.856;2023-02-23T17:01:49;6.70;99.90
5556;DHT22;2801;50.972;7.856;2023-02-23T17:04:18;6.70;99.90
5556;DHT22;2801;50.972;7.856;2023-02-23T17:06:46;6.70;99.90
5556;DHT22;2801;50.972;7.856;2023-02-23T17:09:18;6.70;99.90
5556;DHT22;2801;50.972;7.856;2023-02-23T17:11:45;6.70;99.90
5556;DHT22;2801;50.972;7.856;2023-02-23T17:14:23;6.70;99.90
5556;DHT22;2801;50.972;7.856;2023-02-23T17:16:53;6.70;99.90
5556;DHT22;2801;50.972;7.856;2023-02-23T17:19:20;6.70;99.90
5556;DHT22;2801;50.972;7.856;2023-02-23T17:21:51;6.70;99.90
5556;DHT22;2801;50.972;7.856;2023-02-23T17:24:18;6.80;99.90
5556;DHT22;2801;50.972;7.856;2023-02-23T17:26:45;6.60;99.90
5556;DHT22;2801;50.972;7.856;2023-02-23T17:29:11;6.60;99.90
5556;DHT22;2801;50.972;7.856;2023-02-23T17:31:38;6.60;99.90
5556;DHT22;2801;50.972;7.856;2023-02-23T17:34:06;6.60;99.90
5556;DHT22;2801;50.972;7.856;2023-02-23T17:36:33;6.60;99.90
5556;DHT22;2801;50.972;7.856;2023-02-23T17:39:00;6.60;99.90
5556;DHT22;2801;50.972;7.856;2023-02-23T17:41:27;6.60;99.90
5556;DHT22;2801;50.972;7.856;2023-02-23T17:43:54;6.60;99.90
5556;DHT22;2801;50.972;7.856;2023-02-23T17:46:21;6.50;99.90
5556;DHT22;2801;50.972;7.856;2023-02-23T17:48:49;6.60;99.90
5556;DHT22;2801;50.972;7.856;2023-02-23T17:51:16;6.60;99.90
5556;DHT22;2801;50.972;7.856;2023-02-23T17:53:46;6.60;99.90
5556;DHT22;2801;50.972;7.856;2023-02-23T17:56:13;6.50;99.90
5556;DHT22;2801;50.972;7.856;2023-02-23T17:58:41;6.50;99.90
5556;DHT22;2801;50.972;7.856;2023-02-23T18:01:08;6.50;99.90
5556;DHT22;2801;50.972;7.856;2023-02-23T18:03:36;6.50;99.90
5556;DHT22;2801;50.972;7.856;2023-02-23T18:06:05;6.50;99.90
5556;DHT22;2801;50.972;7.856;2023-02-23T18:08:35;6.50;99.90
5556;DHT22;2801;50.972;7.856;2023-02-23T18:11:03;6.50;99.90
5556;DHT22;2801;50.972;7.856;2023-02-23T18:13:31;6.50;99.90
5556;DHT22;2801;50.972;7.856;2023-02-23T18:16:01;6.60;99.90
5556;DHT22;2801;50.972;7.856;2023-02-23T18:18:34;6.60;99.90
5556;DHT22;2801;50.972;7.856;2023-02-23T18:21:12;6.60;99.90
5556;DHT22;2801;50.972;7.856;2023-02-23T18:23:44;6.60;99.90
5556;DHT22;2801;50.972;7.856;2023-02-23T18:26:14;6.50;99.90
5556;DHT22;2801;50.972;7.856;2023-02-23T18:28:44;6.60;99.90
5556;DHT22;2801;50.972;7.856;2023-02-23T18:31:14;6.50;99.90
5556;DHT22;2801;50.972;7.856;2023-02-23T18:33:43;6.60;99.90
5556;DHT22;2801;50.972;7.856;2023-02-23T18:36:26;6.60;99.90
5556;DHT22;2801;50.972;7.856;2023-02-23T18:38:57;6.50;99.90
5556;DHT22;2801;50.972;7.856;2023-02-23T18:41:25;6.60;99.90
5556;DHT22;2801;50.972;7.856;2023-02-23T18:44:01;6.50;99.90
5556;DHT22;2801;50.972;7.856;2023-02-23T18:46:30;6.60;99.90
5556;DHT22;2801;50.972;7.856;2023-02-23T18:48:57;6.60;99.90
5556;DHT22;2801;50.972;7.856;2023-02-23T18:51:24;6.50;99.90
5556;DHT22;2801;50.972;7.856;2023-02-23T18:53:52;6.50;99.90
5556;DHT22;2801;50.972;7.856;2023-02-23T18:56:22;6.50;99.90
5556;DHT22;2801;50.972;7.856;2023-02-23T18:58:54;6.50;99.90
5556;DHT22;2801;50.972;7.856;2023-02-23T19:01:26;6.50;99.90